MUC | München Airways

Zeit Nach Flug-Nr.
17:35 Palma De Mallorca MUC223
16:30 Oslo Gardermoen BJT5136
23:10 Munich MUC411
Alle Abflüge →
129
Piloten
123
Flugzeuge
783
Routen
7734
Stunden Total
10222
Flüge Total
1099
Charter Flüge
EDDM 300420Z 03010KT 350V050 9999 SCT020 BKN040 M00/M05 Q1023 NOSIG

 LIVE MAP


DEPARTURES | ARRIVALS

Flug-Nr. ETD From To Status Gate (EDDM) In Progress
BJT5136 12:15 Berlin-Schönefeld Oslo Gardermoen BOOKED (MUC291) 0
MUC223 06:15 Munich Palma De Mallorca BOOKED (MUC240) 107
MUC411 22:00 Denver Munich CRUISE (MUC141) 108 ON TIME
MUC112 08:35 Munich Hannover LANDED (MUC271) 109

Weltweite Ziele

Wir fliegen sowohl kontinentale- als auch interkontinentale Ziele an

Flotte

München Airways ist mit einer der modernsten Flotten weltweit unterwegs

Real ATC

Wir fliegen auf dem Online-Netzwerk "IVAO". Nach Standardphrasen der DFS fliegen wir problemlos durch verschiedenste Lufträume

Soziales

Bei unserer Airline ist sowohl der Spass als auch die Beziehung zwischen den Piloten sehr wertvoll

Reale Flugrouten

Alle Routen werden von uns geprüft und täglich aktualisiert. Sommer- sowie Winterflugpläne bringen euch viel Abwechslung

Teamspeak 3

Mittels des Teamspeak 3 Servers können die Piloten zusammen fliegen oder sich gegenseitig austauschen

 LIVEBOARD

 KOMMENDE EVENTS

EventDatum

*/